sensor_id;sensor_type;location;lat;lon;timestamp;P1;durP1;ratioP1;P2;durP2;ratioP2
23470;SDS011;11908;50.806;4.424;2022-12-18T00:01:42;65.15;;;33.80;;
23470;SDS011;11908;50.806;4.424;2022-12-18T00:04:21;63.60;;;34.25;;
23470;SDS011;11908;50.806;4.424;2022-12-18T00:06:47;53.08;;;29.27;;
23470;SDS011;11908;50.806;4.424;2022-12-18T00:09:13;58.70;;;29.85;;
23470;SDS011;11908;50.806;4.424;2022-12-18T00:11:39;52.80;;;27.48;;
23470;SDS011;11908;50.806;4.424;2022-12-18T00:14:05;58.67;;;28.60;;
23470;SDS011;11908;50.806;4.424;2022-12-18T00:16:30;52.45;;;28.45;;
23470;SDS011;11908;50.806;4.424;2022-12-18T00:18:58;53.95;;;28.00;;
23470;SDS011;11908;50.806;4.424;2022-12-18T00:21:24;50.47;;;28.00;;
23470;SDS011;11908;50.806;4.424;2022-12-18T00:23:51;51.40;;;25.17;;
23470;SDS011;11908;50.806;4.424;2022-12-18T00:26:18;54.38;;;27.63;;
23470;SDS011;11908;50.806;4.424;2022-12-18T00:28:45;53.70;;;28.00;;
23470;SDS011;11908;50.806;4.424;2022-12-18T00:31:13;53.50;;;29.27;;
23470;SDS011;11908;50.806;4.424;2022-12-18T00:33:39;57.90;;;29.15;;
23470;SDS011;11908;50.806;4.424;2022-12-18T00:36:19;56.75;;;29.77;;
23470;SDS011;11908;50.806;4.424;2022-12-18T00:38:46;74.55;;;35.30;;
23470;SDS011;11908;50.806;4.424;2022-12-18T00:41:12;73.60;;;36.05;;
23470;SDS011;11908;50.806;4.424;2022-12-18T00:43:59;50.97;;;27.13;;
23470;SDS011;11908;50.806;4.424;2022-12-18T00:46:25;50.40;;;28.02;;
23470;SDS011;11908;50.806;4.424;2022-12-18T00:48:52;53.90;;;28.52;;
23470;SDS011;11908;50.806;4.424;2022-12-18T00:51:17;55.17;;;27.17;;
23470;SDS011;11908;50.806;4.424;2022-12-18T00:53:43;54.85;;;29.73;;
23470;SDS011;11908;50.806;4.424;2022-12-18T00:56:08;53.97;;;28.40;;
23470;SDS011;11908;50.806;4.424;2022-12-18T00:58:34;52.45;;;28.10;;
23470;SDS011;11908;50.806;4.424;2022-12-18T01:01:00;59.20;;;29.73;;
23470;SDS011;11908;50.806;4.424;2022-12-18T01:03:25;55.80;;;27.60;;
23470;SDS011;11908;50.806;4.424;2022-12-18T01:05:51;48.72;;;25.50;;
23470;SDS011;11908;50.806;4.424;2022-12-18T01:08:17;48.38;;;25.63;;
23470;SDS011;11908;50.806;4.424;2022-12-18T01:10:42;44.67;;;22.88;;
23470;SDS011;11908;50.806;4.424;2022-12-18T01:13:08;47.03;;;25.00;;
23470;SDS011;11908;50.806;4.424;2022-12-18T01:15:34;45.55;;;23.25;;
23470;SDS011;11908;50.806;4.424;2022-12-18T01:17:59;43.00;;;24.20;;
23470;SDS011;11908;50.806;4.424;2022-12-18T01:20:25;44.53;;;24.00;;
23470;SDS011;11908;50.806;4.424;2022-12-18T01:22:51;46.67;;;22.58;;
23470;SDS011;11908;50.806;4.424;2022-12-18T01:25:16;41.42;;;21.42;;
23470;SDS011;11908;50.806;4.424;2022-12-18T01:27:42;41.35;;;22.10;;
23470;SDS011;11908;50.806;4.424;2022-12-18T01:30:08;40.72;;;20.90;;
23470;SDS011;11908;50.806;4.424;2022-12-18T01:32:34;37.83;;;21.40;;
23470;SDS011;11908;50.806;4.424;2022-12-18T01:35:00;36.85;;;20.15;;
23470;SDS011;11908;50.806;4.424;2022-12-18T01:37:25;34.30;;;18.40;;
23470;SDS011;11908;50.806;4.424;2022-12-18T01:39:52;30.98;;;17.80;;
23470;SDS011;11908;50.806;4.424;2022-12-18T01:42:19;32.40;;;17.75;;
23470;SDS011;11908;50.806;4.424;2022-12-18T01:47:30;29.58;;;18.23;;
23470;SDS011;11908;50.806;4.424;2022-12-18T01:50:40;34.90;;;19.23;;
23470;SDS011;11908;50.806;4.424;2022-12-18T01:53:10;36.25;;;20.77;;
23470;SDS011;11908;50.806;4.424;2022-12-18T01:55:46;36.85;;;20.48;;
23470;SDS011;11908;50.806;4.424;2022-12-18T01:58:13;31.85;;;17.60;;
23470;SDS011;11908;50.806;4.424;2022-12-18T02:00:40;31.77;;;18.02;;
23470;SDS011;11908;50.806;4.424;2022-12-18T02:03:05;32.78;;;18.30;;
23470;SDS011;11908;50.806;4.424;2022-12-18T02:11:11;36.28;;;18.70;;
23470;SDS011;11908;50.806;4.424;2022-12-18T02:14:00;40.20;;;22.70;;
23470;SDS011;11908;50.806;4.424;2022-12-18T02:16:51;42.30;;;22.80;;
23470;SDS011;11908;50.806;4.424;2022-12-18T02:27:51;41.33;;;22.73;;
23470;SDS011;11908;50.806;4.424;2022-12-18T02:30:19;41.88;;;23.02;;
23470;SDS011;11908;50.806;4.424;2022-12-18T02:32:47;39.25;;;21.63;;
23470;SDS011;11908;50.806;4.424;2022-12-18T02:35:17;42.55;;;22.73;;
23470;SDS011;11908;50.806;4.424;2022-12-18T02:37:49;34.45;;;16.85;;
23470;SDS011;11908;50.806;4.424;2022-12-18T02:40:15;39.47;;;22.80;;
23470;SDS011;11908;50.806;4.424;2022-12-18T02:42:43;43.55;;;22.83;;
23470;SDS011;11908;50.806;4.424;2022-12-18T02:45:08;40.47;;;22.55;;
23470;SDS011;11908;50.806;4.424;2022-12-18T02:47:36;39.75;;;21.38;;
23470;SDS011;11908;50.806;4.424;2022-12-18T02:50:26;35.92;;;20.02;;
23470;SDS011;11908;50.806;4.424;2022-12-18T02:53:03;38.42;;;20.45;;
23470;SDS011;11908;50.806;4.424;2022-12-18T02:56:11;37.47;;;20.88;;
23470;SDS011;11908;50.806;4.424;2022-12-18T03:04:16;42.38;;;23.27;;
23470;SDS011;11908;50.806;4.424;2022-12-18T03:06:58;41.83;;;23.10;;
23470;SDS011;11908;50.806;4.424;2022-12-18T03:09:34;42.00;;;22.98;;
23470;SDS011;11908;50.806;4.424;2022-12-18T03:12:05;38.22;;;21.60;;
23470;SDS011;11908;50.806;4.424;2022-12-18T03:14:54;40.17;;;20.60;;
23470;SDS011;11908;50.806;4.424;2022-12-18T03:17:26;32.22;;;18.45;;
23470;SDS011;11908;50.806;4.424;2022-12-18T03:19:53;32.88;;;17.23;;
23470;SDS011;11908;50.806;4.424;2022-12-18T03:22:22;27.90;;;16.67;;
23470;SDS011;11908;50.806;4.424;2022-12-18T03:24:49;32.15;;;17.75;;
23470;SDS011;11908;50.806;4.424;2022-12-18T03:27:18;26.55;;;16.00;;
23470;SDS011;11908;50.806;4.424;2022-12-18T03:29:49;32.53;;;17.00;;
23470;SDS011;11908;50.806;4.424;2022-12-18T03:32:42;35.00;;;18.23;;
23470;SDS011;11908;50.806;4.424;2022-12-18T03:35:23;22.17;;;13.95;;
23470;SDS011;11908;50.806;4.424;2022-12-18T03:37:53;29.52;;;16.52;;
23470;SDS011;11908;50.806;4.424;2022-12-18T03:40:20;31.45;;;17.45;;
23470;SDS011;11908;50.806;4.424;2022-12-18T03:42:51;37.58;;;20.92;;
23470;SDS011;11908;50.806;4.424;2022-12-18T03:45:24;40.35;;;20.20;;
23470;SDS011;11908;50.806;4.424;2022-12-18T03:48:06;37.13;;;20.50;;
23470;SDS011;11908;50.806;4.424;2022-12-18T03:50:37;36.78;;;20.58;;
23470;SDS011;11908;50.806;4.424;2022-12-18T03:55:39;29.98;;;17.42;;
23470;SDS011;11908;50.806;4.424;2022-12-18T03:58:06;34.15;;;18.40;;
23470;SDS011;11908;50.806;4.424;2022-12-18T04:00:32;23.90;;;15.27;;
23470;SDS011;11908;50.806;4.424;2022-12-18T04:02:59;26.17;;;14.65;;
23470;SDS011;11908;50.806;4.424;2022-12-18T04:05:26;29.80;;;16.10;;
23470;SDS011;11908;50.806;4.424;2022-12-18T04:07:53;29.92;;;17.25;;
23470;SDS011;11908;50.806;4.424;2022-12-18T04:10:21;30.65;;;17.35;;
23470;SDS011;11908;50.806;4.424;2022-12-18T04:12:47;29.23;;;16.90;;
23470;SDS011;11908;50.806;4.424;2022-12-18T04:15:13;30.45;;;17.25;;
23470;SDS011;11908;50.806;4.424;2022-12-18T04:17:39;35.55;;;18.23;;
23470;SDS011;11908;50.806;4.424;2022-12-18T04:20:12;32.05;;;18.42;;
23470;SDS011;11908;50.806;4.424;2022-12-18T04:22:38;31.50;;;18.83;;
23470;SDS011;11908;50.806;4.424;2022-12-18T04:25:04;27.98;;;15.98;;
23470;SDS011;11908;50.806;4.424;2022-12-18T04:27:30;29.17;;;16.20;;
23470;SDS011;11908;50.806;4.424;2022-12-18T04:29:55;28.95;;;16.60;;
23470;SDS011;11908;50.806;4.424;2022-12-18T04:32:21;34.20;;;17.50;;
23470;SDS011;11908;50.806;4.424;2022-12-18T04:34:47;28.67;;;15.73;;
23470;SDS011;11908;50.806;4.424;2022-12-18T04:37:13;30.10;;;16.38;;
23470;SDS011;11908;50.806;4.424;2022-12-18T04:39:38;28.63;;;15.70;;
23470;SDS011;11908;50.806;4.424;2022-12-18T04:42:04;36.33;;;19.80;;
23470;SDS011;11908;50.806;4.424;2022-12-18T04:44:30;39.05;;;21.52;;
23470;SDS011;11908;50.806;4.424;2022-12-18T04:46:55;41.58;;;20.20;;
23470;SDS011;11908;50.806;4.424;2022-12-18T04:49:21;45.78;;;22.45;;
23470;SDS011;11908;50.806;4.424;2022-12-18T04:51:47;42.25;;;23.98;;
23470;SDS011;11908;50.806;4.424;2022-12-18T04:54:13;46.60;;;21.08;;
23470;SDS011;11908;50.806;4.424;2022-12-18T04:56:38;39.67;;;21.00;;
23470;SDS011;11908;50.806;4.424;2022-12-18T04:59:04;40.95;;;21.52;;
23470;SDS011;11908;50.806;4.424;2022-12-18T05:01:30;43.05;;;22.42;;
23470;SDS011;11908;50.806;4.424;2022-12-18T05:04:00;49.80;;;23.33;;
23470;SDS011;11908;50.806;4.424;2022-12-18T05:06:26;41.97;;;22.63;;
23470;SDS011;11908;50.806;4.424;2022-12-18T05:08:51;39.78;;;21.58;;
23470;SDS011;11908;50.806;4.424;2022-12-18T05:11:17;40.17;;;22.95;;
23470;SDS011;11908;50.806;4.424;2022-12-18T05:13:43;43.47;;;22.88;;
23470;SDS011;11908;50.806;4.424;2022-12-18T05:16:10;42.03;;;22.58;;
23470;SDS011;11908;50.806;4.424;2022-12-18T05:18:36;41.58;;;21.98;;
23470;SDS011;11908;50.806;4.424;2022-12-18T05:21:02;39.83;;;22.02;;
23470;SDS011;11908;50.806;4.424;2022-12-18T05:23:28;43.45;;;21.35;;
23470;SDS011;11908;50.806;4.424;2022-12-18T05:25:55;46.70;;;23.05;;
23470;SDS011;11908;50.806;4.424;2022-12-18T05:28:22;43.20;;;20.48;;
23470;SDS011;11908;50.806;4.424;2022-12-18T05:30:49;44.05;;;22.58;;
23470;SDS011;11908;50.806;4.424;2022-12-18T05:33:20;35.60;;;20.48;;
23470;SDS011;11908;50.806;4.424;2022-12-18T05:35:50;32.42;;;18.52;;
23470;SDS011;11908;50.806;4.424;2022-12-18T05:38:21;30.48;;;18.20;;
23470;SDS011;11908;50.806;4.424;2022-12-18T05:40:47;25.88;;;15.43;;
23470;SDS011;11908;50.806;4.424;2022-12-18T05:43:14;30.23;;;15.18;;
23470;SDS011;11908;50.806;4.424;2022-12-18T05:45:40;27.00;;;14.32;;
23470;SDS011;11908;50.806;4.424;2022-12-18T05:48:06;24.92;;;13.80;;
23470;SDS011;11908;50.806;4.424;2022-12-18T05:50:36;30.48;;;15.40;;
23470;SDS011;11908;50.806;4.424;2022-12-18T05:53:03;24.55;;;15.23;;
23470;SDS011;11908;50.806;4.424;2022-12-18T05:55:29;25.73;;;13.20;;
23470;SDS011;11908;50.806;4.424;2022-12-18T05:57:59;22.83;;;13.48;;
23470;SDS011;11908;50.806;4.424;2022-12-18T06:00:25;23.30;;;12.55;;
23470;SDS011;11908;50.806;4.424;2022-12-18T06:02:50;19.67;;;11.45;;
23470;SDS011;11908;50.806;4.424;2022-12-18T06:05:16;18.35;;;10.80;;
23470;SDS011;11908;50.806;4.424;2022-12-18T06:07:42;22.10;;;11.23;;
23470;SDS011;11908;50.806;4.424;2022-12-18T06:10:07;18.65;;;11.00;;
23470;SDS011;11908;50.806;4.424;2022-12-18T06:12:33;20.30;;;11.63;;
23470;SDS011;11908;50.806;4.424;2022-12-18T06:14:59;22.85;;;12.45;;
23470;SDS011;11908;50.806;4.424;2022-12-18T06:17:31;19.40;;;11.85;;
23470;SDS011;11908;50.806;4.424;2022-12-18T06:19:58;21.35;;;12.38;;
23470;SDS011;11908;50.806;4.424;2022-12-18T06:22:24;20.20;;;11.35;;
23470;SDS011;11908;50.806;4.424;2022-12-18T06:24:50;22.05;;;11.55;;
23470;SDS011;11908;50.806;4.424;2022-12-18T06:27:16;16.60;;;9.85;;
23470;SDS011;11908;50.806;4.424;2022-12-18T06:29:42;21.58;;;11.43;;
23470;SDS011;11908;50.806;4.424;2022-12-18T06:32:07;22.30;;;12.43;;
23470;SDS011;11908;50.806;4.424;2022-12-18T06:34:33;18.05;;;10.95;;
23470;SDS011;11908;50.806;4.424;2022-12-18T06:36:59;20.67;;;10.48;;
23470;SDS011;11908;50.806;4.424;2022-12-18T06:39:28;21.55;;;11.40;;
23470;SDS011;11908;50.806;4.424;2022-12-18T06:41:54;20.42;;;11.02;;
23470;SDS011;11908;50.806;4.424;2022-12-18T06:44:19;17.08;;;11.27;;
23470;SDS011;11908;50.806;4.424;2022-12-18T06:46:45;18.63;;;10.00;;
23470;SDS011;11908;50.806;4.424;2022-12-18T06:49:11;18.05;;;9.82;;
23470;SDS011;11908;50.806;4.424;2022-12-18T06:51:37;14.52;;;8.75;;
23470;SDS011;11908;50.806;4.424;2022-12-18T06:54:03;17.17;;;9.68;;
23470;SDS011;11908;50.806;4.424;2022-12-18T06:56:28;15.02;;;8.88;;
23470;SDS011;11908;50.806;4.424;2022-12-18T06:58:54;13.27;;;8.82;;
23470;SDS011;11908;50.806;4.424;2022-12-18T07:01:20;15.88;;;10.13;;
23470;SDS011;11908;50.806;4.424;2022-12-18T07:03:46;16.75;;;9.30;;
23470;SDS011;11908;50.806;4.424;2022-12-18T07:06:17;13.60;;;8.82;;
23470;SDS011;11908;50.806;4.424;2022-12-18T07:08:44;18.92;;;9.35;;
23470;SDS011;11908;50.806;4.424;2022-12-18T07:11:11;16.98;;;9.63;;
23470;SDS011;11908;50.806;4.424;2022-12-18T07:13:37;14.55;;;9.07;;
23470;SDS011;11908;50.806;4.424;2022-12-18T07:18:36;15.45;;;9.25;;
23470;SDS011;11908;50.806;4.424;2022-12-18T07:21:03;21.40;;;9.40;;
23470;SDS011;11908;50.806;4.424;2022-12-18T07:23:31;14.93;;;9.00;;
23470;SDS011;11908;50.806;4.424;2022-12-18T07:26:00;16.20;;;9.35;;
23470;SDS011;11908;50.806;4.424;2022-12-18T07:28:30;12.40;;;8.63;;
23470;SDS011;11908;50.806;4.424;2022-12-18T07:30:57;13.60;;;9.35;;
23470;SDS011;11908;50.806;4.424;2022-12-18T07:33:23;13.35;;;9.02;;
23470;SDS011;11908;50.806;4.424;2022-12-18T07:35:49;13.73;;;8.60;;
23470;SDS011;11908;50.806;4.424;2022-12-18T07:38:15;14.43;;;8.95;;
23470;SDS011;11908;50.806;4.424;2022-12-18T07:40:41;13.13;;;8.52;;
23470;SDS011;11908;50.806;4.424;2022-12-18T07:43:06;13.45;;;8.52;;
23470;SDS011;11908;50.806;4.424;2022-12-18T07:45:32;14.63;;;8.95;;
23470;SDS011;11908;50.806;4.424;2022-12-18T07:47:58;13.23;;;8.00;;
23470;SDS011;11908;50.806;4.424;2022-12-18T07:50:23;13.77;;;8.18;;
23470;SDS011;11908;50.806;4.424;2022-12-18T07:52:49;14.95;;;8.07;;
23470;SDS011;11908;50.806;4.424;2022-12-18T07:55:15;12.63;;;8.40;;
23470;SDS011;11908;50.806;4.424;2022-12-18T07:57:40;14.73;;;8.68;;
23470;SDS011;11908;50.806;4.424;2022-12-18T08:00:06;13.23;;;8.05;;
23470;SDS011;11908;50.806;4.424;2022-12-18T08:02:32;13.88;;;7.70;;
23470;SDS011;11908;50.806;4.424;2022-12-18T08:04:58;15.10;;;9.00;;
23470;SDS011;11908;50.806;4.424;2022-12-18T08:07:24;16.00;;;8.75;;
23470;SDS011;11908;50.806;4.424;2022-12-18T08:09:49;13.55;;;8.52;;
23470;SDS011;11908;50.806;4.424;2022-12-18T08:12:15;13.55;;;8.27;;
23470;SDS011;11908;50.806;4.424;2022-12-18T08:14:41;10.85;;;7.80;;
23470;SDS011;11908;50.806;4.424;2022-12-18T08:17:06;12.55;;;7.75;;
23470;SDS011;11908;50.806;4.424;2022-12-18T08:19:32;13.82;;;8.50;;
23470;SDS011;11908;50.806;4.424;2022-12-18T08:21:58;15.45;;;8.07;;
23470;SDS011;11908;50.806;4.424;2022-12-18T08:24:23;13.25;;;8.18;;
23470;SDS011;11908;50.806;4.424;2022-12-18T08:26:49;12.85;;;7.82;;
23470;SDS011;11908;50.806;4.424;2022-12-18T08:29:15;19.65;;;7.85;;
23470;SDS011;11908;50.806;4.424;2022-12-18T08:31:41;12.50;;;8.40;;
23470;SDS011;11908;50.806;4.424;2022-12-18T08:34:07;13.40;;;7.95;;
23470;SDS011;11908;50.806;4.424;2022-12-18T08:36:33;15.25;;;8.75;;
23470;SDS011;11908;50.806;4.424;2022-12-18T08:38:58;15.63;;;8.38;;
23470;SDS011;11908;50.806;4.424;2022-12-18T08:41:24;14.10;;;8.20;;
23470;SDS011;11908;50.806;4.424;2022-12-18T08:43:50;12.73;;;8.00;;
23470;SDS011;11908;50.806;4.424;2022-12-18T08:46:35;12.30;;;8.10;;
23470;SDS011;11908;50.806;4.424;2022-12-18T08:49:06;14.50;;;8.10;;
23470;SDS011;11908;50.806;4.424;2022-12-18T08:51:33;15.52;;;8.88;;
23470;SDS011;11908;50.806;4.424;2022-12-18T08:53:59;16.80;;;8.40;;
23470;SDS011;11908;50.806;4.424;2022-12-18T08:56:25;14.27;;;8.25;;
23470;SDS011;11908;50.806;4.424;2022-12-18T08:58:51;14.68;;;8.70;;
23470;SDS011;11908;50.806;4.424;2022-12-18T09:01:18;13.55;;;8.10;;
23470;SDS011;11908;50.806;4.424;2022-12-18T09:03:44;15.23;;;9.00;;
23470;SDS011;11908;50.806;4.424;2022-12-18T09:06:12;13.40;;;8.52;;
23470;SDS011;11908;50.806;4.424;2022-12-18T09:08:39;15.27;;;9.10;;
23470;SDS011;11908;50.806;4.424;2022-12-18T09:11:09;14.38;;;9.20;;
23470;SDS011;11908;50.806;4.424;2022-12-18T09:13:44;13.68;;;8.80;;
23470;SDS011;11908;50.806;4.424;2022-12-18T09:16:09;17.48;;;9.82;;
23470;SDS011;11908;50.806;4.424;2022-12-18T09:18:35;16.45;;;9.65;;
23470;SDS011;11908;50.806;4.424;2022-12-18T09:21:06;14.40;;;9.55;;
23470;SDS011;11908;50.806;4.424;2022-12-18T09:23:40;14.02;;;9.10;;
23470;SDS011;11908;50.806;4.424;2022-12-18T09:26:06;15.13;;;8.90;;
23470;SDS011;11908;50.806;4.424;2022-12-18T09:28:31;21.17;;;9.32;;
23470;SDS011;11908;50.806;4.424;2022-12-18T09:30:57;22.70;;;11.52;;
23470;SDS011;11908;50.806;4.424;2022-12-18T09:33:23;17.75;;;10.18;;
23470;SDS011;11908;50.806;4.424;2022-12-18T09:35:49;15.05;;;9.68;;
23470;SDS011;11908;50.806;4.424;2022-12-18T09:38:16;13.98;;;9.40;;
23470;SDS011;11908;50.806;4.424;2022-12-18T09:40:51;18.05;;;9.95;;
23470;SDS011;11908;50.806;4.424;2022-12-18T09:43:33;17.85;;;10.38;;
23470;SDS011;11908;50.806;4.424;2022-12-18T09:46:07;16.08;;;9.63;;
23470;SDS011;11908;50.806;4.424;2022-12-18T09:48:40;17.67;;;10.75;;
23470;SDS011;11908;50.806;4.424;2022-12-18T09:51:17;16.70;;;10.50;;
23470;SDS011;11908;50.806;4.424;2022-12-18T09:53:50;17.38;;;10.50;;
23470;SDS011;11908;50.806;4.424;2022-12-18T09:56:24;16.80;;;10.00;;
23470;SDS011;11908;50.806;4.424;2022-12-18T09:58:58;17.98;;;10.68;;
23470;SDS011;11908;50.806;4.424;2022-12-18T10:01:26;18.98;;;10.80;;
23470;SDS011;11908;50.806;4.424;2022-12-18T10:03:52;18.02;;;11.02;;
23470;SDS011;11908;50.806;4.424;2022-12-18T10:06:31;18.85;;;11.75;;
23470;SDS011;11908;50.806;4.424;2022-12-18T10:20:44;20.58;;;11.90;;
23470;SDS011;11908;50.806;4.424;2022-12-18T10:23:26;20.23;;;11.88;;
23470;SDS011;11908;50.806;4.424;2022-12-18T10:26:01;20.60;;;11.35;;
23470;SDS011;11908;50.806;4.424;2022-12-18T10:28:38;21.67;;;11.90;;
23470;SDS011;11908;50.806;4.424;2022-12-18T10:31:25;23.40;;;12.45;;
23470;SDS011;11908;50.806;4.424;2022-12-18T10:33:51;19.20;;;11.68;;
23470;SDS011;11908;50.806;4.424;2022-12-18T10:36:20;19.35;;;12.43;;
23470;SDS011;11908;50.806;4.424;2022-12-18T10:38:45;21.85;;;12.32;;
23470;SDS011;11908;50.806;4.424;2022-12-18T10:43:44;20.73;;;12.68;;
23470;SDS011;11908;50.806;4.424;2022-12-18T10:51:04;19.92;;;11.57;;
23470;SDS011;11908;50.806;4.424;2022-12-18T10:53:31;21.40;;;11.65;;
23470;SDS011;11908;50.806;4.424;2022-12-18T10:55:59;26.83;;;13.35;;
23470;SDS011;11908;50.806;4.424;2022-12-18T10:58:37;18.90;;;12.65;;
23470;SDS011;11908;50.806;4.424;2022-12-18T11:03:43;19.33;;;12.20;;
23470;SDS011;11908;50.806;4.424;2022-12-18T11:06:15;20.48;;;12.70;;
23470;SDS011;11908;50.806;4.424;2022-12-18T11:08:44;20.92;;;12.38;;
23470;SDS011;11908;50.806;4.424;2022-12-18T11:11:42;22.48;;;12.75;;
23470;SDS011;11908;50.806;4.424;2022-12-18T11:14:28;18.00;;;11.40;;
23470;SDS011;11908;50.806;4.424;2022-12-18T11:16:57;20.90;;;12.20;;
23470;SDS011;11908;50.806;4.424;2022-12-18T11:19:31;20.27;;;12.90;;
23470;SDS011;11908;50.806;4.424;2022-12-18T11:21:59;22.30;;;11.95;;
23470;SDS011;11908;50.806;4.424;2022-12-18T11:24:30;20.30;;;11.90;;
23470;SDS011;11908;50.806;4.424;2022-12-18T11:27:01;16.98;;;11.38;;
23470;SDS011;11908;50.806;4.424;2022-12-18T11:29:35;17.27;;;11.73;;
23470;SDS011;11908;50.806;4.424;2022-12-18T11:33:03;17.88;;;11.13;;
23470;SDS011;11908;50.806;4.424;2022-12-18T11:38:01;19.23;;;12.02;;
23470;SDS011;11908;50.806;4.424;2022-12-18T11:40:38;18.63;;;11.98;;
23470;SDS011;11908;50.806;4.424;2022-12-18T11:45:50;21.42;;;12.65;;
23470;SDS011;11908;50.806;4.424;2022-12-18T11:48:41;19.92;;;11.35;;
23470;SDS011;11908;50.806;4.424;2022-12-18T11:51:29;20.58;;;12.02;;
23470;SDS011;11908;50.806;4.424;2022-12-18T11:54:08;17.70;;;11.23;;
23470;SDS011;11908;50.806;4.424;2022-12-18T11:56:48;21.05;;;12.73;;
23470;SDS011;11908;50.806;4.424;2022-12-18T12:08:04;18.40;;;11.75;;
23470;SDS011;11908;50.806;4.424;2022-12-18T12:10:37;20.10;;;11.57;;
23470;SDS011;11908;50.806;4.424;2022-12-18T12:21:28;24.38;;;13.75;;
23470;SDS011;11908;50.806;4.424;2022-12-18T12:26:51;20.42;;;11.90;;
23470;SDS011;11908;50.806;4.424;2022-12-18T12:38:05;23.60;;;15.27;;
23470;SDS011;11908;50.806;4.424;2022-12-18T12:40:39;26.77;;;14.43;;
23470;SDS011;11908;50.806;4.424;2022-12-18T12:46:09;26.60;;;14.45;;
23470;SDS011;11908;50.806;4.424;2022-12-18T12:48:46;27.05;;;15.63;;
23470;SDS011;11908;50.806;4.424;2022-12-18T12:51:19;25.67;;;13.43;;
23470;SDS011;11908;50.806;4.424;2022-12-18T12:53:51;22.05;;;13.30;;
23470;SDS011;11908;50.806;4.424;2022-12-18T12:56:18;19.42;;;12.23;;
23470;SDS011;11908;50.806;4.424;2022-12-18T12:58:46;22.58;;;13.57;;
23470;SDS011;11908;50.806;4.424;2022-12-18T13:01:32;20.15;;;12.63;;
23470;SDS011;11908;50.806;4.424;2022-12-18T13:09:18;24.52;;;13.80;;
23470;SDS011;11908;50.806;4.424;2022-12-18T13:11:44;23.80;;;14.00;;
23470;SDS011;11908;50.806;4.424;2022-12-18T13:14:36;22.52;;;14.05;;
23470;SDS011;11908;50.806;4.424;2022-12-18T13:19:51;23.90;;;14.15;;
23470;SDS011;11908;50.806;4.424;2022-12-18T13:24:59;25.27;;;14.48;;
23470;SDS011;11908;50.806;4.424;2022-12-18T13:35:39;29.65;;;14.57;;
23470;SDS011;11908;50.806;4.424;2022-12-18T13:43:52;25.23;;;15.52;;
23470;SDS011;11908;50.806;4.424;2022-12-18T13:46:44;29.17;;;17.23;;
23470;SDS011;11908;50.806;4.424;2022-12-18T13:51:49;30.40;;;16.40;;
23470;SDS011;11908;50.806;4.424;2022-12-18T13:54:36;30.10;;;17.27;;
23470;SDS011;11908;50.806;4.424;2022-12-18T13:57:04;29.90;;;17.42;;
23470;SDS011;11908;50.806;4.424;2022-12-18T13:59:49;33.70;;;16.30;;
23470;SDS011;11908;50.806;4.424;2022-12-18T14:02:16;27.73;;;16.65;;
23470;SDS011;11908;50.806;4.424;2022-12-18T14:04:45;32.00;;;16.00;;
23470;SDS011;11908;50.806;4.424;2022-12-18T14:07:17;27.92;;;16.90;;
23470;SDS011;11908;50.806;4.424;2022-12-18T14:09:57;29.75;;;16.38;;
23470;SDS011;11908;50.806;4.424;2022-12-18T14:17:46;31.90;;;17.98;;
23470;SDS011;11908;50.806;4.424;2022-12-18T14:20:15;34.35;;;17.70;;
23470;SDS011;11908;50.806;4.424;2022-12-18T14:22:45;31.27;;;18.00;;
23470;SDS011;11908;50.806;4.424;2022-12-18T14:25:23;32.22;;;17.52;;
23470;SDS011;11908;50.806;4.424;2022-12-18T14:30:48;33.30;;;17.63;;
23470;SDS011;11908;50.806;4.424;2022-12-18T14:33:18;31.75;;;17.83;;
23470;SDS011;11908;50.806;4.424;2022-12-18T14:36:00;33.83;;;18.10;;
23470;SDS011;11908;50.806;4.424;2022-12-18T14:38:29;32.70;;;18.55;;
23470;SDS011;11908;50.806;4.424;2022-12-18T14:41:06;37.42;;;18.13;;
23470;SDS011;11908;50.806;4.424;2022-12-18T14:43:35;33.13;;;18.73;;
23470;SDS011;11908;50.806;4.424;2022-12-18T14:46:02;32.80;;;18.02;;
23470;SDS011;11908;50.806;4.424;2022-12-18T14:51:02;35.47;;;18.67;;
23470;SDS011;11908;50.806;4.424;2022-12-18T14:59:03;34.10;;;18.40;;
23470;SDS011;11908;50.806;4.424;2022-12-18T15:01:37;34.40;;;18.75;;
23470;SDS011;11908;50.806;4.424;2022-12-18T15:09:32;32.20;;;18.98;;
23470;SDS011;11908;50.806;4.424;2022-12-18T15:11:58;34.75;;;19.35;;
23470;SDS011;11908;50.806;4.424;2022-12-18T15:14:32;35.35;;;18.70;;
23470;SDS011;11908;50.806;4.424;2022-12-18T15:17:06;35.53;;;18.05;;
23470;SDS011;11908;50.806;4.424;2022-12-18T15:19:42;32.92;;;17.77;;
23470;SDS011;11908;50.806;4.424;2022-12-18T15:22:17;33.83;;;18.52;;
23470;SDS011;11908;50.806;4.424;2022-12-18T15:24:43;31.23;;;17.20;;
23470;SDS011;11908;50.806;4.424;2022-12-18T15:27:23;35.10;;;19.10;;
23470;SDS011;11908;50.806;4.424;2022-12-18T15:30:01;32.42;;;18.70;;
23470;SDS011;11908;50.806;4.424;2022-12-18T15:32:30;32.70;;;18.42;;
23470;SDS011;11908;50.806;4.424;2022-12-18T15:35:28;34.00;;;19.23;;
23470;SDS011;11908;50.806;4.424;2022-12-18T15:37:50;32.53;;;17.45;;
23470;SDS011;11908;50.806;4.424;2022-12-18T15:40:23;34.38;;;17.30;;
23470;SDS011;11908;50.806;4.424;2022-12-18T15:42:50;34.92;;;18.77;;
23470;SDS011;11908;50.806;4.424;2022-12-18T15:45:37;32.35;;;18.05;;
23470;SDS011;11908;50.806;4.424;2022-12-18T15:48:07;33.42;;;17.98;;
23470;SDS011;11908;50.806;4.424;2022-12-18T15:50:45;31.42;;;17.35;;
23470;SDS011;11908;50.806;4.424;2022-12-18T15:53:10;36.42;;;18.80;;
23470;SDS011;11908;50.806;4.424;2022-12-18T15:55:36;34.58;;;17.63;;
23470;SDS011;11908;50.806;4.424;2022-12-18T15:58:21;38.95;;;19.45;;
23470;SDS011;11908;50.806;4.424;2022-12-18T16:00:47;31.55;;;18.33;;
23470;SDS011;11908;50.806;4.424;2022-12-18T16:03:12;33.53;;;17.35;;
23470;SDS011;11908;50.806;4.424;2022-12-18T16:05:38;30.20;;;16.73;;
23470;SDS011;11908;50.806;4.424;2022-12-18T16:08:04;33.47;;;18.48;;
23470;SDS011;11908;50.806;4.424;2022-12-18T16:10:29;31.90;;;18.15;;
23470;SDS011;11908;50.806;4.424;2022-12-18T16:12:55;34.95;;;18.30;;
23470;SDS011;11908;50.806;4.424;2022-12-18T16:15:21;31.30;;;17.00;;
23470;SDS011;11908;50.806;4.424;2022-12-18T16:17:47;35.45;;;17.55;;
23470;SDS011;11908;50.806;4.424;2022-12-18T16:20:16;33.67;;;17.30;;
23470;SDS011;11908;50.806;4.424;2022-12-18T16:22:45;31.90;;;16.00;;
23470;SDS011;11908;50.806;4.424;2022-12-18T16:25:20;31.58;;;17.25;;
23470;SDS011;11908;50.806;4.424;2022-12-18T16:27:49;37.00;;;18.15;;
23470;SDS011;11908;50.806;4.424;2022-12-18T16:30:17;34.20;;;17.05;;
23470;SDS011;11908;50.806;4.424;2022-12-18T16:32:44;32.85;;;16.15;;
23470;SDS011;11908;50.806;4.424;2022-12-18T16:35:11;31.52;;;16.65;;
23470;SDS011;11908;50.806;4.424;2022-12-18T16:37:37;34.40;;;17.02;;
23470;SDS011;11908;50.806;4.424;2022-12-18T16:40:04;33.15;;;17.02;;
23470;SDS011;11908;50.806;4.424;2022-12-18T16:42:30;33.33;;;16.35;;
23470;SDS011;11908;50.806;4.424;2022-12-18T16:44:56;31.38;;;17.15;;
23470;SDS011;11908;50.806;4.424;2022-12-18T16:47:22;30.27;;;17.65;;
23470;SDS011;11908;50.806;4.424;2022-12-18T16:49:47;28.02;;;16.42;;
23470;SDS011;11908;50.806;4.424;2022-12-18T16:52:16;31.75;;;16.15;;
23470;SDS011;11908;50.806;4.424;2022-12-18T16:54:42;31.88;;;16.00;;